createdAt,value
2019-05-26T00:00:16.589Z,96.64
2019-05-26T00:01:16.776Z,97.25
2019-05-26T00:02:16.944Z,97.45
2019-05-26T00:03:17.487Z,97.45
2019-05-26T00:04:17.299Z,97.25
2019-05-26T00:05:17.491Z,97.36
2019-05-26T00:06:18.481Z,97.25
2019-05-26T00:07:30.125Z,97.45
2019-05-26T00:08:20.009Z,97.15
2019-05-26T00:09:19.026Z,97.15
2019-05-26T00:10:18.426Z,97.66
2019-05-26T00:11:18.604Z,97.25
2019-05-26T00:12:18.808Z,97.15
2019-05-26T00:13:19.000Z,96.73
2019-05-26T00:14:19.166Z,97.45
2019-05-26T00:15:19.360Z,97.91
2019-05-26T00:16:19.594Z,98.07
2019-05-26T00:17:19.663Z,97.77
2019-05-26T00:18:19.829Z,97.05
2019-05-26T00:19:19.981Z,97.45
2019-05-26T00:20:20.115Z,97.40
2019-05-26T00:21:20.301Z,97.77
2019-05-26T00:22:20.479Z,97.61
2019-05-26T00:23:20.687Z,97.40
2019-05-26T00:24:20.853Z,97.56
2019-05-26T00:25:21.002Z,97.66
2019-05-26T00:26:21.165Z,97.50
2019-05-26T00:27:21.377Z,97.61
2019-05-26T00:28:22.478Z,97.25
2019-05-26T00:29:21.718Z,97.40
2019-05-26T00:30:21.857Z,97.40
2019-05-26T00:31:22.042Z,97.40
2019-05-26T00:32:22.202Z,97.19
2019-05-26T00:33:22.356Z,97.56
2019-05-26T00:34:22.526Z,97.19
2019-05-26T00:35:22.683Z,97.50
2019-05-26T00:36:22.838Z,97.09
2019-05-26T00:37:23.006Z,97.09
2019-05-26T00:38:23.161Z,97.09
2019-05-26T00:39:23.321Z,97.71
2019-05-26T00:40:23.456Z,97.61
2019-05-26T00:41:23.593Z,97.25
2019-05-26T00:42:23.759Z,97.50
2019-05-26T00:43:24.486Z,97.30
2019-05-26T00:44:24.138Z,97.05
2019-05-26T00:45:24.243Z,97.05
2019-05-26T00:46:24.497Z,97.71
2019-05-26T00:47:24.638Z,98.38
2019-05-26T00:48:24.793Z,98.79
2019-05-26T00:49:24.948Z,98.18
2019-05-26T00:50:25.493Z,98.49
2019-05-26T00:51:25.240Z,98.38
2019-05-26T00:52:25.360Z,98.28
2019-05-26T00:53:25.984Z,98.18
2019-05-26T00:54:25.729Z,97.97
2019-05-26T00:55:25.842Z,98.38
2019-05-26T00:56:25.967Z,98.38
2019-05-26T00:57:26.086Z,98.07
2019-05-26T00:58:26.993Z,98.49
2019-05-26T00:59:26.358Z,98.28
2019-05-26T01:00:26.498Z,98.49
2019-05-26T01:01:27.489Z,97.97
2019-05-26T01:02:27.483Z,98.69
2019-05-26T01:03:26.968Z,97.92
2019-05-26T01:04:27.497Z,98.38
2019-05-26T01:05:28.023Z,97.77
2019-05-26T01:06:27.388Z,97.45
2019-05-26T01:07:27.575Z,97.45
2019-05-26T01:08:28.480Z,97.25
2019-05-26T01:09:27.982Z,97.77
2019-05-26T01:10:28.143Z,97.66
2019-05-26T01:11:28.318Z,97.25
2019-05-26T01:12:28.465Z,97.25
2019-05-26T01:13:28.588Z,97.05
2019-05-26T01:14:28.738Z,97.05
2019-05-26T01:15:28.902Z,97.71
2019-05-26T01:16:29.087Z,97.97
2019-05-26T01:17:29.295Z,97.56
2019-05-26T01:18:29.380Z,98.49
2019-05-26T01:19:29.525Z,98.18
2019-05-26T01:20:29.686Z,97.87
2019-05-26T01:21:29.855Z,97.87
2019-05-26T01:22:30.980Z,97.36
2019-05-26T01:23:30.989Z,97.30
2019-05-26T01:24:30.376Z,97.36
2019-05-26T01:25:30.507Z,98.59
2019-05-26T01:26:30.655Z,98.59
2019-05-26T01:27:31.010Z,97.66
2019-05-26T01:28:31.038Z,97.45
2019-05-26T01:29:31.170Z,97.05
2019-05-26T01:30:31.298Z,97.05
2019-05-26T01:31:31.484Z,98.18
2019-05-26T01:32:31.625Z,98.59
2019-05-26T01:33:31.779Z,98.44
2019-05-26T01:34:31.897Z,97.10
2019-05-26T01:35:32.986Z,97.20
2019-05-26T01:36:32.501Z,97.31
2019-05-26T01:37:32.366Z,97.52
2019-05-26T01:38:33.504Z,97.20
2019-05-26T01:39:32.753Z,97.41
2019-05-26T01:40:32.865Z,97.62
2019-05-26T01:41:33.992Z,97.20
2019-05-26T01:42:33.233Z,97.31
2019-05-26T01:43:33.341Z,96.85
2019-05-26T01:44:33.471Z,96.75
2019-05-26T01:45:33.639Z,96.48
2019-05-26T01:46:33.763Z,96.23
2019-05-26T01:47:33.933Z,96.34
2019-05-26T01:48:34.068Z,96.39
2019-05-26T01:49:34.296Z,96.90
2019-05-26T01:50:34.498Z,96.69
2019-05-26T01:51:34.653Z,96.33
2019-05-26T01:52:34.838Z,96.73
2019-05-26T01:53:35.501Z,96.59
2019-05-26T01:54:35.148Z,96.84
2019-05-26T01:55:35.309Z,96.43
2019-05-26T01:56:35.478Z,96.43
2019-05-26T01:57:35.673Z,96.73
2019-05-26T01:58:35.859Z,96.43
2019-05-26T01:59:36.041Z,96.73
2019-05-26T02:00:36.214Z,96.84
2019-05-26T02:01:36.388Z,96.99
2019-05-26T02:02:36.547Z,96.68
2019-05-26T02:03:36.738Z,96.06
2019-05-26T02:04:37.497Z,96.58
2019-05-26T02:05:37.007Z,97.50
2019-05-26T02:06:37.151Z,97.71
2019-05-26T02:07:37.305Z,97.81
2019-05-26T02:08:39.726Z,97.30
2019-05-26T02:09:38.669Z,97.30
2019-05-26T02:10:37.816Z,97.30
2019-05-26T02:11:37.969Z,97.50
2019-05-26T02:12:38.176Z,97.61
2019-05-26T02:13:38.348Z,97.19
2019-05-26T02:14:38.549Z,97.65
2019-05-26T02:15:38.756Z,97.86
2019-05-26T02:16:39.504Z,98.53
2019-05-26T02:17:39.038Z,97.40
2019-05-26T02:18:39.500Z,97.55
2019-05-26T02:19:39.414Z,97.81
2019-05-26T02:20:40.580Z,97.61
2019-05-26T02:21:39.721Z,98.06
2019-05-26T02:22:39.896Z,98.22
2019-05-26T02:23:40.105Z,98.27
2019-05-26T02:24:40.291Z,98.37
2019-05-26T02:25:40.475Z,98.47
2019-05-26T02:26:40.683Z,98.88
2019-05-26T02:27:40.902Z,99.09
2019-05-26T02:28:41.066Z,99.35
2019-05-26T02:29:41.260Z,98.74
2019-05-26T02:30:41.435Z,98.33
2019-05-26T02:31:41.617Z,98.18
2019-05-26T02:32:42.800Z,98.22
2019-05-26T02:33:41.928Z,97.91
2019-05-26T02:34:42.091Z,98.33
2019-05-26T02:35:42.267Z,98.43
2019-05-26T02:36:42.431Z,98.12
2019-05-26T02:37:42.634Z,98.79
2019-05-26T02:38:59.756Z,98.28
2019-05-26T02:39:45.505Z,98.38
2019-05-26T02:40:43.119Z,98.43
2019-05-26T02:41:43.327Z,97.77
2019-05-26T02:42:43.483Z,97.81
2019-05-26T02:43:43.680Z,97.56
2019-05-26T02:44:44.883Z,97.56
2019-05-26T02:45:44.038Z,97.77
2019-05-26T02:46:44.221Z,97.19
2019-05-26T02:47:44.399Z,97.56
2019-05-26T02:48:44.571Z,97.40
2019-05-26T02:49:44.756Z,97.97
2019-05-26T02:50:44.913Z,97.81
2019-05-26T02:51:45.086Z,97.50
2019-05-26T02:52:45.260Z,97.61
2019-05-26T02:53:45.433Z,98.58
2019-05-26T02:54:46.015Z,97.61
2019-05-26T02:55:45.756Z,98.06
2019-05-26T02:56:45.901Z,97.75
2019-05-26T02:57:46.064Z,98.43
2019-05-26T02:58:46.221Z,98.47
2019-05-26T02:59:46.372Z,97.81
2019-05-26T03:00:46.611Z,97.91
2019-05-26T03:02:02.075Z,97.91
2019-05-26T03:02:48.901Z,97.86
2019-05-26T03:03:47.128Z,97.55
2019-05-26T03:04:47.313Z,97.91
2019-05-26T03:05:47.526Z,98.68
2019-05-26T03:06:47.746Z,98.99
2019-05-26T03:07:47.945Z,98.53
2019-05-26T03:08:48.143Z,98.43
2019-05-26T03:09:48.338Z,97.96
2019-05-26T03:10:48.556Z,97.75
2019-05-26T03:11:49.498Z,97.55
2019-05-26T03:12:48.907Z,98.79
2019-05-26T03:13:49.048Z,98.37
2019-05-26T03:14:49.182Z,98.88
2019-05-26T03:15:49.348Z,98.68
2019-05-26T03:16:49.492Z,98.99
2019-05-26T03:17:49.678Z,99.40
2019-05-26T03:18:49.845Z,99.40
2019-05-26T03:19:50.018Z,99.51
2019-05-26T03:20:51.191Z,98.37
2019-05-26T03:21:51.002Z,99.60
2019-05-26T03:22:50.489Z,99.51
2019-05-26T03:23:50.652Z,99.30
2019-05-26T03:24:50.791Z,99.19
2019-05-26T03:25:51.506Z,99.30
2019-05-26T03:26:51.528Z,99.40
2019-05-26T03:27:51.281Z,99.15
2019-05-26T03:28:51.998Z,99.46
2019-05-26T03:29:51.632Z,98.63
2019-05-26T03:30:51.901Z,98.84
2019-05-26T03:31:51.907Z,98.33
2019-05-26T03:32:52.049Z,98.53
2019-05-26T03:33:52.168Z,98.59
2019-05-26T03:34:52.295Z,98.74
2019-05-26T03:35:52.461Z,98.53
2019-05-26T03:36:52.557Z,98.33
2019-05-26T03:37:52.780Z,98.59
2019-05-26T03:38:53.014Z,98.59
2019-05-26T03:39:53.234Z,98.38
2019-05-26T03:40:53.386Z,98.18
2019-05-26T03:41:53.557Z,98.18
2019-05-26T03:42:53.685Z,98.18
2019-05-26T03:43:53.793Z,98.38
2019-05-26T03:44:53.916Z,98.03
2019-05-26T03:45:54.046Z,97.87
2019-05-26T03:46:54.207Z,97.62
2019-05-26T03:47:54.365Z,97.72
2019-05-26T03:48:54.521Z,97.72
2019-05-26T03:49:54.656Z,97.00
2019-05-26T03:50:54.784Z,96.69
2019-05-26T03:51:54.935Z,96.59
2019-05-26T03:52:55.135Z,96.75
2019-05-26T03:53:56.007Z,96.85
2019-05-26T03:54:55.396Z,96.55
2019-05-26T03:55:55.542Z,97.16
2019-05-26T03:56:55.717Z,97.16
2019-05-26T03:57:55.863Z,97.47
2019-05-26T03:58:56.066Z,96.50
2019-05-26T03:59:57.009Z,96.23
2019-05-26T04:00:56.423Z,96.40
2019-05-26T04:01:57.867Z,95.89
2019-05-26T04:02:57.726Z,95.78
2019-05-26T04:03:56.903Z,95.84
2019-05-26T04:04:57.532Z,95.78
2019-05-26T04:05:57.321Z,95.64
2019-05-26T04:06:58.488Z,95.53
2019-05-26T04:07:57.638Z,95.90
2019-05-26T04:08:57.833Z,95.69
2019-05-26T04:10:04.829Z,95.90
2019-05-26T04:11:00.154Z,95.18
2019-05-26T04:11:59.009Z,95.07
2019-05-26T04:12:58.418Z,95.49
2019-05-26T04:13:59.014Z,95.34
2019-05-26T04:14:58.826Z,95.20
2019-05-26T04:15:59.012Z,94.62
2019-05-26T04:16:59.176Z,94.48
2019-05-26T04:18:00.367Z,93.86
2019-05-26T04:18:59.543Z,93.51
2019-05-26T04:19:59.732Z,92.90
2019-05-26T04:20:59.911Z,91.63
2019-05-26T04:22:01.009Z,91.11
2019-05-26T04:23:00.262Z,91.07
2019-05-26T04:24:00.433Z,90.19
2019-05-26T04:25:00.583Z,89.98
2019-05-26T04:26:00.788Z,90.50
2019-05-26T04:27:01.518Z,89.64
2019-05-26T04:28:01.172Z,89.84
2019-05-26T04:29:02.340Z,90.66
2019-05-26T04:30:01.522Z,90.21
2019-05-26T04:31:02.020Z,89.80
2019-05-26T04:32:02.386Z,90.00
2019-05-26T04:33:03.033Z,89.59
2019-05-26T04:34:02.172Z,89.18
2019-05-26T04:35:02.322Z,90.21
2019-05-26T04:36:02.517Z,90.72
2019-05-26T04:37:03.512Z,89.50
2019-05-26T04:38:03.025Z,89.80
2019-05-26T04:39:03.060Z,90.36
2019-05-26T04:40:22.459Z,90.97
2019-05-26T04:41:04.344Z,91.17
2019-05-26T04:42:03.502Z,89.90
2019-05-26T04:43:03.699Z,89.80
2019-05-26T04:44:03.876Z,89.90
2019-05-26T04:45:04.048Z,89.84
2019-05-26T04:46:04.270Z,89.09
2019-05-26T04:47:04.439Z,89.09
2019-05-26T04:48:04.575Z,89.04
2019-05-26T04:49:04.818Z,89.35
2019-05-26T04:50:04.962Z,90.02
2019-05-26T04:51:06.014Z,88.59
2019-05-26T04:52:05.321Z,88.70
2019-05-26T04:53:07.262Z,88.90
2019-05-26T04:54:06.709Z,89.31
2019-05-26T04:55:05.850Z,87.73
2019-05-26T04:56:06.001Z,87.43
2019-05-26T04:57:06.170Z,87.18
2019-05-26T04:58:06.327Z,87.14
2019-05-26T04:59:06.459Z,86.83
2019-05-26T05:00:06.607Z,86.33
2019-05-26T05:01:06.734Z,85.41
2019-05-26T05:02:06.913Z,85.37
2019-05-26T05:03:07.086Z,85.51
2019-05-26T05:04:07.229Z,86.67
2019-05-26T05:05:22.017Z,87.14
2019-05-26T05:06:07.624Z,87.38
2019-05-26T05:07:08.522Z,87.35
2019-05-26T05:08:08.037Z,86.94
2019-05-26T05:09:08.205Z,87.45
2019-05-26T05:10:08.345Z,86.22
2019-05-26T05:11:08.496Z,86.73
2019-05-26T05:12:08.646Z,87.35
2019-05-26T05:13:08.813Z,87.14
2019-05-26T05:14:08.977Z,86.53
2019-05-26T05:15:09.111Z,86.73
2019-05-26T05:16:09.241Z,86.43
2019-05-26T05:17:09.403Z,87.41
2019-05-26T05:18:09.535Z,86.18
2019-05-26T05:19:09.693Z,86.29
2019-05-26T05:20:09.847Z,85.88
2019-05-26T05:21:10.520Z,86.39
2019-05-26T05:22:10.124Z,85.98
2019-05-26T05:23:10.266Z,85.88
2019-05-26T05:24:10.426Z,86.18
2019-05-26T05:25:15.010Z,86.18
2019-05-26T05:26:11.744Z,85.53
2019-05-26T05:27:10.856Z,85.39
2019-05-26T05:28:11.007Z,85.39
2019-05-26T05:29:11.175Z,84.67
2019-05-26T05:30:11.340Z,84.58
2019-05-26T05:31:11.487Z,84.94
2019-05-26T05:32:12.531Z,84.43
2019-05-26T05:33:11.772Z,84.19
2019-05-26T05:34:11.959Z,83.81
2019-05-26T05:35:12.120Z,81.40
2019-05-26T05:36:12.292Z,82.89
2019-05-26T05:37:12.451Z,82.48
2019-05-26T05:38:12.648Z,82.28
2019-05-26T05:39:13.535Z,80.98
2019-05-26T05:40:13.053Z,80.07
2019-05-26T05:41:13.088Z,79.60
2019-05-26T05:42:14.023Z,81.30
2019-05-26T05:43:13.424Z,82.82
2019-05-26T05:44:14.524Z,82.73
2019-05-26T05:45:13.824Z,83.03
2019-05-26T05:46:14.017Z,82.52
2019-05-26T05:47:14.225Z,82.73
2019-05-26T05:48:14.414Z,81.67
2019-05-26T05:49:14.611Z,82.42
2019-05-26T05:50:14.819Z,81.57
2019-05-26T05:51:15.519Z,81.37
2019-05-26T05:52:15.202Z,83.03
2019-05-26T05:53:15.370Z,82.62
2019-05-26T05:54:15.530Z,81.98
2019-05-26T05:55:16.530Z,80.65
2019-05-26T05:56:16.518Z,81.02
2019-05-26T05:57:16.070Z,80.62
2019-05-26T05:58:17.048Z,81.43
2019-05-26T05:59:16.417Z,80.72
2019-05-26T06:00:16.595Z,80.51
2019-05-26T06:01:16.782Z,79.97
2019-05-26T06:02:16.963Z,80.47
2019-05-26T06:03:18.720Z,80.37
2019-05-26T06:04:19.016Z,80.62
2019-05-26T06:05:18.506Z,81.09
2019-05-26T06:06:17.782Z,80.37
2019-05-26T06:07:17.937Z,81.09
2019-05-26T06:08:18.203Z,79.16
2019-05-26T06:09:18.324Z,79.66
2019-05-26T06:10:18.483Z,79.83
2019-05-26T06:11:18.661Z,78.99
2019-05-26T06:12:18.815Z,79.66
2019-05-26T06:13:19.524Z,78.98
2019-05-26T06:14:19.239Z,78.98
2019-05-26T06:15:19.285Z,78.53
2019-05-26T06:16:19.466Z,77.22
2019-05-26T06:17:19.652Z,76.03
2019-05-26T06:18:19.834Z,75.66
2019-05-26T06:19:20.032Z,75.52
2019-05-26T06:20:20.213Z,75.69
2019-05-26T06:21:21.043Z,75.45
2019-05-26T06:22:20.550Z,72.81
2019-05-26T06:23:20.720Z,76.03
2019-05-26T06:24:20.899Z,75.93
2019-05-26T06:25:22.042Z,76.20
2019-05-26T06:26:21.199Z,77.31
2019-05-26T06:27:21.377Z,75.35
2019-05-26T06:28:21.587Z,75.62
2019-05-26T06:29:22.609Z,73.63
2019-05-26T06:30:21.889Z,75.49
2019-05-26T06:31:22.085Z,74.71
2019-05-26T06:32:22.264Z,74.48
2019-05-26T06:33:22.487Z,75.15
2019-05-26T06:34:22.702Z,73.32
2019-05-26T06:35:23.546Z,73.93
2019-05-26T06:36:23.075Z,73.83
2019-05-26T06:37:23.221Z,74.48
2019-05-26T06:38:23.390Z,75.08
2019-05-26T06:39:23.574Z,75.49
2019-05-26T06:40:23.762Z,74.17
2019-05-26T06:41:32.983Z,75.35
2019-05-26T06:42:26.190Z,74.84
2019-05-26T06:43:24.554Z,75.45
2019-05-26T06:44:24.441Z,75.35
2019-05-26T06:45:24.575Z,74.95
2019-05-26T06:46:24.694Z,74.98
2019-05-26T06:47:24.836Z,74.95
2019-05-26T06:48:26.881Z,74.64
2019-05-26T06:49:26.142Z,73.56
2019-05-26T06:50:25.263Z,72.31
2019-05-26T06:51:25.402Z,73.83
2019-05-26T06:52:25.532Z,72.61
2019-05-26T06:53:25.680Z,72.85
2019-05-26T06:54:25.833Z,73.76
2019-05-26T06:55:25.970Z,72.61
2019-05-26T06:56:26.117Z,73.05
2019-05-26T06:57:26.293Z,73.05
2019-05-26T06:58:26.496Z,73.80
2019-05-26T06:59:27.689Z,73.12
2019-05-26T07:00:26.819Z,73.59
2019-05-26T07:01:26.985Z,72.95
2019-05-26T07:02:27.145Z,72.01
2019-05-26T07:03:27.323Z,72.41
2019-05-26T07:04:27.466Z,72.95
2019-05-26T07:05:27.649Z,73.29
2019-05-26T07:06:27.836Z,73.86
2019-05-26T07:07:27.987Z,74.54
2019-05-26T07:08:28.196Z,72.01
2019-05-26T07:09:28.371Z,72.08
2019-05-26T07:10:28.562Z,72.41
2019-05-26T07:11:28.703Z,72.78
2019-05-26T07:12:28.860Z,72.28
2019-05-26T07:13:29.042Z,72.04
2019-05-26T07:14:29.213Z,71.20
2019-05-26T07:15:29.561Z,70.96
2019-05-26T07:16:38.171Z,70.93
2019-05-26T07:17:31.812Z,69.65
2019-05-26T07:18:30.038Z,70.42
2019-05-26T07:19:30.171Z,70.32
2019-05-26T07:20:30.586Z,70.22
2019-05-26T07:21:30.491Z,68.44
2019-05-26T07:22:30.652Z,69.48
2019-05-26T07:23:30.898Z,68.48
2019-05-26T07:24:31.037Z,68.57
2019-05-26T07:25:31.210Z,67.19
2019-05-26T07:26:31.389Z,68.51
2019-05-26T07:27:32.052Z,68.61
2019-05-26T07:28:31.692Z,69.92
2019-05-26T07:29:31.865Z,68.01
2019-05-26T07:30:32.057Z,68.51
2019-05-26T07:31:32.288Z,67.33
2019-05-26T07:32:32.488Z,65.79
2019-05-26T07:33:32.686Z,66.09
2019-05-26T07:34:32.883Z,66.56
2019-05-26T07:35:33.370Z,64.04
2019-05-26T07:36:34.216Z,66.63
2019-05-26T07:37:33.352Z,65.32
2019-05-26T07:38:33.507Z,66.02
2019-05-26T07:39:33.695Z,66.19
2019-05-26T07:40:33.877Z,65.35
2019-05-26T07:41:34.112Z,64.15
2019-05-26T07:42:34.305Z,64.98
2019-05-26T07:43:34.488Z,62.24
2019-05-26T07:44:34.685Z,63.45
2019-05-26T07:45:35.079Z,62.37
2019-05-26T07:46:35.229Z,63.85
2019-05-26T07:47:35.297Z,63.07
2019-05-26T07:48:36.171Z,63.33
2019-05-26T07:49:36.656Z,63.33
2019-05-26T07:50:35.803Z,64.67
2019-05-26T07:51:36.020Z,65.58
2019-05-26T07:52:36.244Z,66.22
2019-05-26T07:53:36.436Z,65.32
2019-05-26T07:54:36.656Z,63.04
2019-05-26T07:55:36.851Z,61.70
2019-05-26T07:56:37.068Z,62.24
2019-05-26T07:57:37.290Z,63.78
2019-05-26T07:58:38.067Z,63.47
2019-05-26T07:59:37.618Z,62.34
2019-05-26T08:00:37.806Z,63.08
2019-05-26T08:01:38.023Z,61.63
2019-05-26T08:02:38.238Z,61.13
2019-05-26T08:03:38.414Z,62.19
2019-05-26T08:04:38.600Z,62.46
2019-05-26T08:05:38.775Z,62.06
2019-05-26T08:06:38.927Z,62.21
2019-05-26T08:07:39.104Z,61.40
2019-05-26T08:08:39.283Z,61.57
2019-05-26T08:09:39.461Z,61.37
2019-05-26T08:10:39.614Z,61.74
2019-05-26T08:11:39.775Z,61.98
2019-05-26T08:12:39.945Z,59.79
2019-05-26T08:13:40.115Z,62.74
2019-05-26T08:14:40.288Z,61.70
2019-05-26T08:15:40.457Z,62.16
2019-05-26T08:16:40.606Z,62.87
2019-05-26T08:17:40.796Z,63.42
2019-05-26T08:18:40.996Z,61.65
2019-05-26T08:19:41.213Z,61.44
2019-05-26T08:20:42.081Z,61.11
2019-05-26T08:21:41.639Z,61.01
2019-05-26T08:22:42.568Z,60.58
2019-05-26T08:23:41.963Z,57.94
2019-05-26T08:24:43.075Z,56.74
2019-05-26T08:25:42.412Z,58.70
2019-05-26T08:26:42.498Z,59.50
2019-05-26T08:27:42.713Z,59.58
2019-05-26T08:28:42.900Z,56.86
2019-05-26T08:29:43.576Z,56.88
2019-05-26T08:30:43.255Z,55.13
2019-05-26T08:31:43.450Z,57.34
2019-05-26T08:32:43.679Z,59.88
2019-05-26T08:33:43.892Z,59.12
2019-05-26T08:34:45.073Z,56.98
2019-05-26T08:35:44.216Z,57.24
2019-05-26T08:36:44.403Z,55.40
2019-05-26T08:37:45.088Z,54.17
2019-05-26T08:38:44.755Z,57.14
2019-05-26T08:39:48.254Z,57.21
2019-05-26T08:40:45.593Z,57.39
2019-05-26T08:41:46.083Z,59.08
2019-05-26T08:42:45.495Z,57.68
2019-05-26T08:43:45.685Z,57.44
2019-05-26T08:44:45.867Z,57.01
2019-05-26T08:45:46.035Z,56.01
2019-05-26T08:46:46.230Z,55.13
2019-05-26T08:47:46.450Z,51.87
2019-05-26T08:48:46.650Z,55.66
2019-05-26T08:49:46.792Z,54.83
2019-05-26T08:50:46.973Z,55.40
2019-05-26T08:51:47.201Z,53.70
2019-05-26T08:52:47.586Z,54.33
2019-05-26T08:53:47.614Z,57.37
2019-05-26T08:54:47.755Z,56.66
2019-05-26T08:55:47.942Z,56.46
2019-05-26T08:56:48.117Z,56.26
2019-05-26T08:57:48.326Z,57.17
2019-05-26T08:58:48.594Z,56.74
2019-05-26T08:59:49.584Z,56.91
2019-05-26T09:00:48.868Z,55.08
2019-05-26T09:01:49.046Z,54.47
2019-05-26T09:02:49.607Z,55.08
2019-05-26T09:03:50.086Z,55.58
2019-05-26T09:04:50.084Z,54.93
2019-05-26T09:05:49.743Z,54.85
2019-05-26T09:06:50.582Z,53.37
2019-05-26T09:07:50.165Z,50.29
2019-05-26T09:08:50.345Z,50.99
2019-05-26T09:09:50.536Z,52.64
2019-05-26T09:10:50.710Z,55.82
2019-05-26T09:11:50.899Z,50.37
2019-05-26T09:13:00.735Z,51.52
2019-05-26T09:13:53.225Z,49.58
2019-05-26T09:14:52.080Z,48.38
2019-05-26T09:15:51.485Z,49.13
2019-05-26T09:16:52.585Z,51.14
2019-05-26T09:17:52.600Z,52.14
2019-05-26T09:18:52.105Z,51.64
2019-05-26T09:19:52.173Z,49.87
2019-05-26T09:20:52.316Z,50.96
2019-05-26T09:21:52.515Z,52.02
2019-05-26T09:22:53.594Z,49.87
2019-05-26T09:23:52.875Z,51.82
2019-05-26T09:24:53.020Z,49.46
2019-05-26T09:25:53.184Z,50.96
2019-05-26T09:26:53.362Z,49.39
2019-05-26T09:27:53.508Z,49.69
2019-05-26T09:28:53.667Z,45.38
2019-05-26T09:29:53.867Z,47.31
2019-05-26T09:30:54.006Z,48.76
2019-05-26T09:31:54.312Z,52.22
2019-05-26T09:32:54.475Z,48.47
2019-05-26T09:33:54.615Z,46.23
2019-05-26T09:34:54.761Z,48.72
2019-05-26T09:35:54.959Z,44.17
2019-05-26T09:36:57.061Z,46.11
2019-05-26T09:37:56.369Z,44.55
2019-05-26T09:38:56.095Z,45.97
2019-05-26T09:39:56.106Z,45.01
2019-05-26T09:40:55.756Z,47.55
2019-05-26T09:41:56.592Z,39.98
2019-05-26T09:42:56.093Z,42.15
2019-05-26T09:43:56.226Z,43.45
2019-05-26T09:44:56.371Z,43.15
2019-05-26T09:45:56.553Z,43.48
2019-05-26T09:46:57.600Z,45.09
2019-05-26T09:47:56.865Z,44.08
2019-05-26T09:49:00.627Z,46.81
2019-05-26T09:49:57.217Z,47.28
2019-05-26T09:50:57.435Z,47.11
2019-05-26T09:51:57.543Z,47.71
2019-05-26T09:52:57.730Z,46.91
2019-05-26T09:54:01.727Z,47.33
2019-05-26T09:54:59.111Z,49.76
2019-05-26T09:55:59.099Z,47.35
2019-05-26T09:56:58.399Z,46.93
2019-05-26T09:57:59.100Z,47.35
2019-05-26T09:58:58.759Z,46.59
2019-05-26T09:59:58.982Z,47.39
2019-05-26T10:00:59.156Z,48.78
2019-05-26T10:01:59.348Z,46.55
2019-05-26T10:02:59.539Z,46.45
2019-05-26T10:03:59.706Z,46.25
2019-05-26T10:05:00.609Z,46.03
2019-05-26T10:06:00.001Z,46.47
2019-05-26T10:07:01.111Z,48.08
2019-05-26T10:08:00.402Z,47.77
2019-05-26T10:09:00.564Z,49.40
2019-05-26T10:10:00.757Z,48.75
2019-05-26T10:11:00.920Z,50.63
2019-05-26T10:12:01.071Z,50.23
2019-05-26T10:13:01.265Z,50.71
2019-05-26T10:14:01.426Z,49.91
2019-05-26T10:15:01.663Z,50.96
2019-05-26T10:16:01.843Z,47.88
2019-05-26T10:17:01.999Z,49.21
2019-05-26T10:18:02.202Z,52.69
2019-05-26T10:19:02.396Z,48.86
2019-05-26T10:20:02.568Z,47.77
2019-05-26T10:21:02.747Z,49.71
2019-05-26T10:22:03.618Z,50.13
2019-05-26T10:23:03.127Z,50.33
2019-05-26T10:24:03.308Z,50.35
2019-05-26T10:25:03.489Z,50.71
2019-05-26T10:26:03.676Z,50.43
2019-05-26T10:27:03.854Z,50.41
2019-05-26T10:28:04.048Z,53.59
2019-05-26T10:29:04.248Z,50.86
2019-05-26T10:30:05.185Z,47.96
2019-05-26T10:31:04.591Z,50.56
2019-05-26T10:32:04.776Z,50.16
2019-05-26T10:33:04.945Z,50.46
2019-05-26T10:34:05.088Z,49.26
2019-05-26T10:35:05.249Z,48.75
2019-05-26T10:36:05.443Z,50.38
2019-05-26T10:37:05.585Z,47.72
2019-05-26T10:38:06.626Z,49.25
2019-05-26T10:39:05.869Z,50.23
2019-05-26T10:40:06.137Z,49.76
2019-05-26T10:41:06.187Z,49.83
2019-05-26T10:42:06.388Z,50.03
2019-05-26T10:43:06.563Z,49.05
2019-05-26T10:44:06.713Z,49.35
2019-05-26T10:45:06.874Z,50.15
2019-05-26T10:46:07.035Z,50.66
2019-05-26T10:47:08.201Z,49.85
2019-05-26T10:48:07.341Z,50.33
2019-05-26T10:49:08.119Z,51.56
2019-05-26T10:50:07.710Z,51.94
2019-05-26T10:51:08.625Z,50.26
2019-05-26T10:52:07.998Z,49.76
2019-05-26T10:53:08.142Z,53.57
2019-05-26T10:54:08.279Z,51.46
2019-05-26T10:55:08.554Z,51.36
2019-05-26T10:56:08.741Z,51.66
2019-05-26T10:57:08.887Z,51.59
2019-05-26T10:58:09.034Z,51.06
2019-05-26T10:59:09.199Z,50.05
2019-05-26T11:00:09.362Z,49.98
2019-05-26T11:01:09.525Z,51.89
2019-05-26T11:02:09.645Z,52.17
2019-05-26T11:03:09.832Z,50.05
2019-05-26T11:04:10.632Z,49.48
2019-05-26T11:05:10.144Z,50.78
2019-05-26T11:06:10.344Z,51.86
2019-05-26T11:07:10.495Z,51.56
2019-05-26T11:08:10.629Z,50.56
2019-05-26T11:09:10.790Z,52.06
2019-05-26T11:10:11.632Z,50.53
2019-05-26T11:11:11.161Z,51.18
2019-05-26T11:12:12.126Z,51.59
2019-05-26T11:13:12.136Z,52.26
2019-05-26T11:14:11.653Z,51.66
2019-05-26T11:15:11.821Z,51.76
2019-05-26T11:16:12.015Z,52.97
2019-05-26T11:17:12.187Z,52.06
2019-05-26T11:18:12.340Z,51.68
2019-05-26T11:19:12.507Z,51.99
2019-05-26T11:20:13.148Z,51.79
2019-05-26T11:21:12.895Z,52.29
2019-05-26T11:22:13.151Z,51.76
2019-05-26T11:23:13.216Z,50.18
2019-05-26T11:24:13.432Z,52.17
2019-05-26T11:25:13.604Z,54.68
2019-05-26T11:26:13.767Z,50.35
2019-05-26T11:27:14.648Z,52.17
2019-05-26T11:28:15.103Z,52.47
2019-05-26T11:29:14.236Z,52.37
2019-05-26T11:30:14.416Z,52.09
2019-05-26T11:31:14.596Z,52.49
2019-05-26T11:32:14.807Z,54.23
2019-05-26T11:33:14.981Z,53.30
2019-05-26T11:34:15.170Z,55.31
2019-05-26T11:35:15.331Z,54.48
2019-05-26T11:36:15.535Z,53.40
2019-05-26T11:37:15.740Z,54.68
2019-05-26T11:38:15.917Z,55.05
2019-05-26T11:39:16.076Z,53.45
2019-05-26T11:40:16.254Z,56.23
2019-05-26T11:41:17.157Z,53.65
2019-05-26T11:42:16.701Z,54.05
2019-05-26T11:43:17.593Z,54.75
2019-05-26T11:44:18.523Z,54.58
2019-05-26T11:45:17.258Z,54.78
2019-05-26T11:46:17.595Z,55.76
2019-05-26T11:47:17.612Z,54.85
2019-05-26T11:48:17.801Z,55.35
2019-05-26T11:49:17.940Z,55.96
2019-05-26T11:50:18.087Z,55.26
2019-05-26T11:51:18.248Z,56.46
2019-05-26T11:52:20.345Z,57.04
2019-05-26T11:53:20.141Z,57.84
2019-05-26T11:54:18.745Z,57.14
2019-05-26T11:55:18.924Z,57.91
2019-05-26T11:56:19.075Z,56.03
2019-05-26T11:57:19.221Z,57.44
2019-05-26T11:58:19.653Z,56.86
2019-05-26T11:59:19.558Z,57.84
2019-05-26T12:00:19.727Z,56.03
2019-05-26T12:01:22.947Z,56.74
2019-05-26T12:02:21.003Z,56.63
2019-05-26T12:03:21.172Z,57.74
2019-05-26T12:04:22.189Z,57.17
2019-05-26T12:05:20.447Z,56.16
2019-05-26T12:06:20.607Z,56.43
2019-05-26T12:07:20.777Z,57.04
2019-05-26T12:08:20.959Z,56.16
2019-05-26T12:09:21.159Z,58.24
2019-05-26T12:10:21.357Z,54.77
2019-05-26T12:11:21.511Z,56.41
2019-05-26T12:12:21.689Z,56.68
2019-05-26T12:13:21.867Z,54.77
2019-05-26T12:14:34.387Z,55.58
2019-05-26T12:15:24.214Z,55.38
2019-05-26T12:16:22.362Z,54.77
2019-05-26T12:17:22.550Z,55.35
2019-05-26T12:18:22.737Z,55.75
2019-05-26T12:19:22.945Z,55.05
2019-05-26T12:20:23.645Z,55.15
2019-05-26T12:21:23.299Z,55.45
2019-05-26T12:22:23.448Z,55.38
2019-05-26T12:23:23.615Z,55.78
2019-05-26T12:24:23.780Z,57.28
2019-05-26T12:25:23.978Z,55.45
2019-05-26T12:26:24.127Z,55.93
2019-05-26T12:27:24.287Z,55.52
2019-05-26T12:28:24.447Z,54.97
2019-05-26T12:29:25.153Z,55.68
2019-05-26T12:30:24.794Z,56.51
2019-05-26T12:31:24.929Z,57.48
2019-05-26T12:32:25.077Z,56.48
2019-05-26T12:33:25.220Z,56.13
2019-05-26T12:34:25.345Z,56.21
2019-05-26T12:35:25.613Z,56.61
2019-05-26T12:36:26.657Z,55.91
2019-05-26T12:37:26.660Z,55.98
2019-05-26T12:38:26.006Z,55.15
2019-05-26T12:39:26.135Z,57.23
2019-05-26T12:40:26.284Z,55.02
2019-05-26T12:41:27.153Z,55.63
2019-05-26T12:42:26.614Z,55.82
2019-05-26T12:43:27.663Z,55.18
2019-05-26T12:44:26.881Z,56.35
2019-05-26T12:45:27.176Z,55.55
2019-05-26T12:46:27.162Z,55.52
2019-05-26T12:47:27.343Z,54.95
2019-05-26T12:48:27.481Z,55.13
2019-05-26T12:49:28.073Z,56.26
2019-05-26T12:50:28.755Z,57.93
2019-05-26T12:51:27.962Z,53.72
2019-05-26T12:52:28.126Z,55.02
2019-05-26T12:53:28.250Z,54.75
2019-05-26T12:54:29.164Z,55.35